Flight Track Log - Related Links

Times and Time Zones

All times are in EDT time to prevent confusion due to time zone crossing. See the KAL1337 flight status page for this flight to view local times or setup timezone preferences in your user account.

Time Position Orientation Groundspeed Altitude Reporting Facility
EDT Latitude Longitude Course Direction KTS MPH feet Rate Location/Type
Mon 03:48:00 AM 36.8984 126.9963 166° South  Level Estimated
Mon 03:49:00 AM 36.8159 127.0218 166° South  Level Estimated
Mon 03:50:00 AM 36.7333 127.0472 166° South  Level Estimated
Mon 03:51:00 AM 36.6508 127.0725 166° South  Level Estimated
Mon 03:52:00 AM 36.5683 127.0978 166° South  Level Estimated
Mon 03:53:00 AM 36.4857 127.1231 166° South  Level Estimated
Mon 03:54:00 AM 36.4032 127.1483 166° South  Level Estimated
Mon 03:55:00 AM 36.3206 127.1734 166° South  Level Estimated
Mon 03:56:00 AM 36.2381 127.1985 166° South  Level Estimated
Mon 03:57:00 AM 36.1555 127.2235 166° South  Level Estimated
Mon 03:58:00 AM 36.0730 127.2485 166° South  Level Estimated
Mon 03:59:00 AM 35.9904 127.2734 166° South  Level Estimated
Mon 04:00:00 AM 35.9078 127.2983 166° South  Level Estimated
Mon 04:01:00 AM 35.8253 127.3231 166° South  Level Estimated
Mon 04:02:00 AM 35.7427 127.3479 166° South  Level Estimated
Mon 04:03:00 AM 35.6601 127.3726 166° South  Level Estimated
Mon 04:04:00 AM 35.5775 127.3973 166° South  Level Estimated
Mon 04:05:00 AM 35.4949 127.4219 166° South  Level Estimated
Mon 04:06:00 AM 35.4369 127.4392 166° South  Level Estimated
Mon 04:07:00 AM 35.3789 127.4564 166° South  Level Estimated
Mon 04:08:00 AM 35.3209 127.4736 166° South  Level Estimated
Mon 04:09:00 AM 35.2629 127.4908 166° South  Level Estimated
Mon 04:10:00 AM 35.2049 127.5079 166° South  Level Estimated
Mon 04:11:00 AM 35.1469 127.5251 166° South  Level Estimated
Mon 04:12:00 AM 35.0889 127.5422 166° South  Level Estimated
Mon 04:13:00 AM 35.0308 127.5593 166° South  Level Estimated
Mon 04:14:00 AM 34.9728 127.5763 166° South  Level Estimated
Mon 04:15:00 AM 34.9148 127.5934 166° South  Level Estimated
Mon 04:16:00 AM 34.8568 127.6104 166° South  Level Estimated
Mon 04:17:00 AM 34.8398 127.6153 166° South  Level Estimated
Mon 04:18:00 AM 34.8398 127.6153 180° South  Level Estimated
Mon 04:19:00 AM 34.8398 127.6153 180° South  Level Estimated
Mon 04:20:00 AM 34.8398 127.6153 180° South  Level Estimated
Mon 04:21:00 AM 34.8398 127.6153 180° South  Level Estimated
Mon 04:22:00 AM 34.8398 127.6153 180° South  Level Estimated
Mon 04:23:00 AM 34.8398 127.6153 180° South  Level Estimated
Mon 04:24:00 AM 34.8398 127.6153 180° South  Level Estimated
Mon 04:25:00 AM 34.8398 127.6153 180° South  Level Estimated
Mon 04:26:00 AM 34.8398 127.6153 180° South  Level Estimated
Mon 04:27:00 AM 34.8398 127.6153 180° South  Level Estimated

Login

Don't have an account? Register now (free) for customized features, flight alerts, and more!